»·PEaware :: N47DT KSNA-KBUR

N47DT :: KSNA-KBUR

FLIGHT INFORMATION

Flight Status: Arrived
Operator: Privately registered:
United States
More flights under this callsign
Pilot: Wayne C. (13792)
Aircraft: CESSNA 172 SKYHAWK
(C172)
More flights by this aircraft type
Origin: KSNA John Wayne-Orange Co
United States
Destination: KBUR Bob Hope-Burbank
United States
More flights between these airports :: More routes between these airports
Route: +SLI V23 POPPR SMO125R SMO SMO311R SILEX
File this flight plan on PilotEdge
Remarks: I-3
Altitude:
(Current/Filed)
400ft
Speed:
(Current/Filed)
115kts
Departed: 23-Apr-17 11:44 AM
Arrived: 23-Apr-17 12:21 PM
Distance/Time
Traveled:
40nm/0:37
Distance/Time
To Go:
Arrived

Flight Plot

Page will automatically refresh every two minutes.


Map Options




Map Legend


Flown Route
Filed Route
Departure Airport
Arrival Airport
Navaid (VOR, NDB)
Fix

Horizontal Profiles

Position Reports

Time Latitude Longitude Heading Altitude Ground
Speed
23-Apr-17 11:24 33.671715 -117.867795 27 59ft 0kts
23-Apr-17 11:25 33.671715 -117.867795 27 59ft 0kts
23-Apr-17 11:26 33.671715 -117.867795 27 59ft 0kts
23-Apr-17 11:26 33.671715 -117.867795 27 59ft 0kts
23-Apr-17 11:28 33.671715 -117.867795 27 59ft 0kts
23-Apr-17 11:29 33.671715 -117.867795 27 59ft 0kts
23-Apr-17 11:29 33.671715 -117.867795 27 59ft 0kts
23-Apr-17 11:31 33.671715 -117.867795 27 59ft 0kts
23-Apr-17 11:31 33.671715 -117.867795 27 59ft 0kts
23-Apr-17 11:33 33.671715 -117.867795 27 59ft 0kts
23-Apr-17 11:33 33.671715 -117.867795 27 59ft 0kts
23-Apr-17 11:35 33.671715 -117.867795 27 59ft 0kts
23-Apr-17 11:35 33.671715 -117.867795 27 59ft 0kts
23-Apr-17 11:37 33.671715 -117.867795 27 59ft 0kts
23-Apr-17 11:38 33.672892 -117.867625 23 59ft 14kts
23-Apr-17 11:38 33.676247 -117.865722 28 59ft 20kts
23-Apr-17 11:40 33.679967 -117.863612 302 59ft 0kts
23-Apr-17 11:40 33.680000 -117.863671 304 59ft 0kts
23-Apr-17 11:41 33.680008 -117.863685 304 59ft 0kts
23-Apr-17 11:43 33.680008 -117.863685 304 59ft 0kts
23-Apr-17 11:43 33.680008 -117.863685 304 59ft 0kts
23-Apr-17 11:45 33.680009 -117.863685 303 59ft 0kts
23-Apr-17 11:45 33.675627 -117.867537 213 221ft 61kts
23-Apr-17 11:47 33.664045 -117.890168 238 1618ft 74kts
23-Apr-17 11:47 33.654592 -117.907119 229 2649ft 71kts
23-Apr-17 11:48 33.647508 -117.930115 293 3718ft 89kts
23-Apr-17 11:49 33.651251 -117.936617 297 4049ft 86kts
23-Apr-17 11:50 33.660423 -117.961233 274 4056ft 116kts
23-Apr-17 11:51 33.669343 -117.995152 290 4177ft 131kts
23-Apr-17 11:52 33.684605 -118.037215 292 4003ft 140kts
23-Apr-17 11:53 33.701621 -118.078671 291 3972ft 134kts
23-Apr-17 11:54 33.715173 -118.117671 286 4278ft 122kts
23-Apr-17 11:55 33.726027 -118.159562 289 4033ft 133kts
23-Apr-17 11:56 33.750169 -118.190721 314 4089ft 131kts
23-Apr-17 11:57 33.774898 -118.221949 309 4021ft 131kts
23-Apr-17 11:58 33.795236 -118.251971 311 4266ft 100kts
23-Apr-17 11:59 33.823297 -118.255529 358 4391ft 109kts
23-Apr-17 12:00 33.835823 -118.283223 290 4455ft 111kts
23-Apr-17 12:01 33.856717 -118.309257 322 4388ft 111kts
23-Apr-17 12:02 33.881851 -118.331610 324 4315ft 118kts
23-Apr-17 12:03 33.911458 -118.359173 321 4090ft 141kts
23-Apr-17 12:04 33.941004 -118.386665 320 4155ft 138kts
23-Apr-17 12:05 33.970445 -118.416894 317 4079ft 139kts
23-Apr-17 12:06 33.999850 -118.447635 314 4032ft 142kts
23-Apr-17 12:07 34.023918 -118.481154 290 4401ft 126kts
23-Apr-17 12:08 34.045650 -118.515784 311 4286ft 148kts
23-Apr-17 12:09 34.072989 -118.548862 311 4102ft 131kts
23-Apr-17 12:10 34.075402 -118.551796 311 4047ft 133kts
23-Apr-17 12:11 34.091914 -118.569632 317 4008ft 127kts
23-Apr-17 12:12 34.121791 -118.585470 351 4052ft 116kts
23-Apr-17 12:14 34.149756 -118.596556 308 4201ft 100kts
23-Apr-17 12:15 34.170213 -118.623726 320 4058ft 119kts
23-Apr-17 12:16 34.194439 -118.603142 60 4114ft 117kts
23-Apr-17 12:17 34.202196 -118.568213 97 3931ft 110kts
23-Apr-17 12:18 34.199571 -118.530165 96 3440ft 119kts
23-Apr-17 12:19 34.199019 -118.492140 92 2839ft 108kts
23-Apr-17 12:20 34.198670 -118.454831 89 2214ft 113kts
23-Apr-17 12:21 34.198958 -118.419076 93 1620ft 109kts
23-Apr-17 12:22 34.198020 -118.384482 89 1033ft 102kts
23-Apr-17 12:23 34.197813 -118.361274 89 733ft 3kts
23-Apr-17 12:24 34.198550 -118.360384 357 733ft 0kts
23-Apr-17 12:25 34.198554 -118.360384 357 733ft 0kts

Navigation Log

Ident Type
Flight plan parsing failed, navigation log unavailable